TJNR/NRR METAR and TAF weather

Enter ICAO airport designator
Station Type Date Time Source
TJNR METAR 2019/02/20 16:53 UTC NOAA

TJNR 201653Z AUTO 04004KT 10SM FEW048 BKN060 OVC075 24/23 A3012 RMK AO2 RAE35 SLP200 P0002 T02440228


Station Type Date Time Source
TJNR Decoded METAR 2019/02/20 16:53 UTC NOAA

ROOSEVELT ROADS PUERTO RICO, PR, United States (TJNR) 18-15N 65-38W 10M
Feb 20, 2019 - 11:53 AM EST / 2019.02.20 1653 UTC
Wind: from the NE (040 degrees) at 5 MPH (4 KT):0
Visibility: 10 mile(s):0
Sky conditions: overcast
Precipitation last hour: 0.02 inches
Temperature: 75.9 F (24.4 C)
Dew Point: 73.0 F (22.8 C)
Relative Humidity: 90%
Pressure (altimeter): 30.12 in. Hg (1019 hPa)
ob: TJNR 201653Z AUTO 04004KT 10SM FEW048 BKN060 OVC075 24/23 A3012 RMK AO2 RAE35 SLP200 P0002 T02440228
cycle: 17

Station Type Date Time Source
TJNR TAF UTC NOAA

Error!


Example: see airport list